Terminal Aerodrome Forecast
Issued by NWS

Home | Current Version | Previous Version | Text Only | Print | Product List | Glossary On
Versions: 1 2 3 4 5 6 7 8 9 10 11 12
777
FTUS42 KMHX 281123
TAFISO
TAF
KISO 281123Z 2812/2912 21007KT P6SM BKN120
     FM281400 23009KT P6SM -SHRA SCT030 BKN060
     FM281800 22011G18KT P6SM VCSH BKN080
     FM282000 23012KT P6SM -SHRA VCTS SCT020 BKN050CB
     FM290000 25006KT P6SM FEW020 SCT050
     FM290600 34004KT P6SM SCT250
      AMD LTD TO CLD VIS AND WIND=

USA.gov is the U.S. government's official web portal to all federal, state and local government web resources and services.